Coos Bay, OR (97420)

5:20 AM PDT on September 16, 2014 (GMT -0700)
MesoWest NERRS METEOROLOGICAL SITE AT SOU OR US | Change Station
CLOSE
Current Station
Personal Weather Station
Location: Coos Bay, OR
Elevation: 8 ft
Nearby Weather Stations

Elev 8 ft 43.35 °N, 124.33 °W | Updated 50 minutes ago

Clear
Clear
50 °F
Feels Like 50 °F
N
0
Wind Variable Wind from South
Gusts 3.0 mph

Today
High -- | Low -- °F
--% Chance of Precip.
Yesterday
High -- | Low -- °F
Precip. -- in
6:57 AM 7:25 PM
Last Quarter, 46% visible
Pressure 29.92 in
Visibility 10.0 miles
Clouds Clear
Dew Point 49 °F
Humidity 96%
Rainfall -999.00 in
Snow Depth 0 in
UV 0 out of 12
Pollen 1.70 out of 12
Air Quality Not available.
Flu Activity Not available.
METAR KOTH 161215Z 14004KT 10SM CLR 12/12 A2992 RMK AO1

More Conditions Fewer Conditions

Pressure 29.92 in
Visibility 10.0 miles
Clouds Clear
Dew Point 49 °F
Humidity 96%
Rainfall -999.00 in
Snow Depth 0 in
UV 0 out of 12
Pollen 1.70 out of 12
Air Quality Not available.
Flu Activity Not available.
METAR KOTH 161215Z 14004KT 10SM CLR 12/12 A2992 RMK AO1

More Conditions Fewer Conditions

10-Day Weather Forecast

Almanac

Astronomy

Sep. 16, 2014 Rise Set
Actual Time 6:57 AM PDT 7:25 PM PDT
Civil Twilight 6:29 AM PDT 7:53 PM PDT
Nautical Twilight 5:55 AM PDT 8:27 PM PDT
Astronomical Twilight 5:20 AM PDT 9:01 PM PDT
Moon 12:04 AM PDT 3:00 PM PDT
Length of Visible Light 13h 24m
Length of Day
12h 27m
Tomorrow will be 2m 55s shorter.
Last Quarter, 46% of the Moon is Illuminated
Today
Last Quarter
Sep 24
New
Oct 1
First Quarter
Oct 8
Full
Oct 15
Last Quarter

Today's Extremes

State Highs State Lows

Community

WunderPhotos

Upload Photos

1,753,754 photos uploaded!

Nearby

Snow Depth

Station Depth Elevation
Roaring River 0 in 4900 ft
Blazed Alder 0 in 3650 ft
Gold Center 0 in 5340 ft
Lucky Strike 1 in 5050 ft
Bourne 0 in 5800 ft

Earthquake Activity

City Distance Mag. Time & Date
No recent earthquake activity has been reported nearby.
Minimum magnitude displayed is 2.5.

Coastal Water Temperatures

Place Temperature
Port Orford, OR 55.0 °F
Charleston, OR 54.0 °F
South Beach, OR 54.0 °F

Nearby Weather Stations